GTAJB EGPH-EGPF

Flight info

Callsign GTAJB
Flight time N/A
Altitude 2000
Route VIA GLENEAGLES
Aircraft H145/L-SDFGRY/C

Departure

Time 2026-04-22 11:53
Airport Edinburgh Airport (EGPH)

Arrival

Time N/A
Airport Glasgow Airport (EGPF)
Time Latitude Longitude Altitude Speed Heading
2026-04-22 11:39 55.95237 -3.35702 113 ft 0 kts 31°
2026-04-22 11:44 55.95236 -3.35702 113 ft 0 kts 31°
2026-04-22 11:46 55.95236 -3.35703 113 ft 0 kts 31°
2026-04-22 11:50 55.95236 -3.35700 131 ft 5 kts 279°
2026-04-22 11:50 55.95254 -3.35833 131 ft 17 kts 272°
2026-04-22 11:50 55.95228 -3.36070 124 ft 21 kts 235°
2026-04-22 11:50 55.95133 -3.36253 136 ft 17 kts 309°
2026-04-22 11:51 55.95115 -3.36299 139 ft 5 kts 346°
2026-04-22 11:51 55.95157 -3.36314 120 ft 5 kts 332°
2026-04-22 11:51 55.95160 -3.36318 117 ft 3 kts 333°
2026-04-22 11:51 55.95174 -3.36331 112 ft 0 kts 325°
2026-04-22 11:52 55.95199 -3.36381 205 ft 16 kts 326°
2026-04-22 11:52 55.95427 -3.36632 449 ft 58 kts 329°
2026-04-22 11:53 55.95870 -3.37151 696 ft 94 kts 327°
2026-04-22 11:53 55.96503 -3.37899 938 ft 123 kts 328°
2026-04-22 11:53 55.97215 -3.38743 1256 ft 118 kts 327°
2026-04-22 11:53 55.97895 -3.39582 1502 ft 121 kts 327°
2026-04-22 11:54 55.98587 -3.40443 1689 ft 121 kts 331°
2026-04-22 11:54 55.99261 -3.40813 1749 ft 113 kts
2026-04-22 11:54 56.00025 -3.40771 1775 ft 109 kts
2026-04-22 11:54 56.00787 -3.40772 1784 ft 110 kts
2026-04-22 11:55 56.01551 -3.40783 1780 ft 112 kts
2026-04-22 11:55 56.02329 -3.40796 1806 ft 112 kts
2026-04-22 11:55 56.03091 -3.40736 1802 ft 107 kts 12°
2026-04-22 11:55 56.03840 -3.40608 1790 ft 110 kts 13°
2026-04-22 11:56 56.04599 -3.40483 1798 ft 110 kts 12°
2026-04-22 11:56 56.05357 -3.40369 1807 ft 109 kts 12°
2026-04-22 11:56 56.06107 -3.40259 1799 ft 108 kts 12°
2026-04-22 11:56 56.06859 -3.40140 1797 ft 109 kts 12°
2026-04-22 11:57 56.07614 -3.40017 1800 ft 110 kts 14°
2026-04-22 11:57 56.08377 -3.39909 1806 ft 109 kts 12°
2026-04-22 11:57 56.09133 -3.39814 1803 ft 109 kts 13°
2026-04-22 11:57 56.09889 -3.39720 1806 ft 108 kts 13°
2026-04-22 11:58 56.10629 -3.39625 1797 ft 109 kts 12°
2026-04-22 11:58 56.11382 -3.39505 1800 ft 109 kts 13°
2026-04-22 11:58 56.12142 -3.39436 1805 ft 113 kts
2026-04-22 11:58 56.12883 -3.40043 1807 ft 122 kts 325°
2026-04-22 11:59 56.13379 -3.41282 1811 ft 125 kts 305°
2026-04-22 11:59 56.13854 -3.42571 1805 ft 124 kts 310°
2026-04-22 11:59 56.14348 -3.43841 1809 ft 124 kts 310°
2026-04-22 11:59 56.14839 -3.45113 1807 ft 123 kts 309°
2026-04-22 12:00 56.15327 -3.46379 1807 ft 124 kts 309°
2026-04-22 12:00 56.15814 -3.47643 1807 ft 123 kts 310°
2026-04-22 12:00 56.16301 -3.48905 1804 ft 123 kts 310°
2026-04-22 12:00 56.16741 -3.50041 1806 ft 124 kts 309°
2026-04-22 12:01 56.17228 -3.51320 1816 ft 124 kts 309°
2026-04-22 12:01 56.17704 -3.52575 1808 ft 124 kts 309°
2026-04-22 12:01 56.18183 -3.53829 1814 ft 124 kts 310°
2026-04-22 12:01 56.18671 -3.55112 1810 ft 125 kts 310°
2026-04-22 12:02 56.19163 -3.56397 1813 ft 125 kts 310°
2026-04-22 12:02 56.19654 -3.57684 1813 ft 125 kts 309°
2026-04-22 12:02 56.20143 -3.58959 1813 ft 123 kts 311°
2026-04-22 12:02 56.20635 -3.60257 1811 ft 127 kts 309°
2026-04-22 12:03 56.21191 -3.61431 1813 ft 123 kts 323°
2026-04-22 12:03 56.21805 -3.62513 1822 ft 124 kts 320°
2026-04-22 12:03 56.22399 -3.63632 1832 ft 124 kts 315°
2026-04-22 12:03 56.22798 -3.65044 1827 ft 129 kts 291°
2026-04-22 12:04 56.22819 -3.66634 1834 ft 127 kts 255°
2026-04-22 12:04 56.22503 -3.68104 1822 ft 125 kts 251°
2026-04-22 12:04 56.22483 -3.69671 1783 ft 128 kts 286°
2026-04-22 12:04 56.22759 -3.71143 1821 ft 125 kts 302°
2026-04-22 12:05 56.23339 -3.72201 1819 ft 116 kts 330°
2026-04-22 12:05 56.23991 -3.73078 1825 ft 117 kts 330°
2026-04-22 12:05 56.24640 -3.73851 1836 ft 102 kts 342°
2026-04-22 12:05 56.25176 -3.74380 1891 ft 80 kts 344°
2026-04-22 12:06 56.25685 -3.74724 1764 ft 78 kts 359°
2026-04-22 12:06 56.26199 -3.74972 1627 ft 76 kts 358°
2026-04-22 12:06 56.26709 -3.75209 1485 ft 76 kts 358°
2026-04-22 12:06 56.27228 -3.75425 1339 ft 78 kts 359°
2026-04-22 12:07 56.27757 -3.75609 1203 ft 77 kts 358°
2026-04-22 12:07 56.28285 -3.75828 1059 ft 78 kts 354°
2026-04-22 12:07 56.28810 -3.76013 897 ft 73 kts 24°
2026-04-22 12:07 56.28891 -3.75566 795 ft 47 kts 148°
2026-04-22 12:08 56.28557 -3.75513 731 ft 50 kts 161°
2026-04-22 12:08 56.28230 -3.75474 730 ft 31 kts 67°
2026-04-22 12:08 56.28174 -3.75254 648 ft 16 kts 46°
2026-04-22 12:08 56.28264 -3.75085 573 ft 15 kts 45°
2026-04-22 12:09 56.28294 -3.75010 532 ft 2 kts 51°
2026-04-22 12:09 56.28296 -3.75008 531 ft 0 kts 47°